sensor_id;sensor_type;location;lat;lon;timestamp;temperature;humidity
19044;DHT22;9654;52.302;8.120;2022-11-15T00:00:31;7.90;99.90
19044;DHT22;9654;52.302;8.120;2022-11-15T00:02:57;7.90;99.90
19044;DHT22;9654;52.302;8.120;2022-11-15T00:05:24;8.00;99.90
19044;DHT22;9654;52.302;8.120;2022-11-15T00:07:51;8.00;99.90
19044;DHT22;9654;52.302;8.120;2022-11-15T00:10:18;8.00;99.90
19044;DHT22;9654;52.302;8.120;2022-11-15T00:12:44;8.10;99.90
19044;DHT22;9654;52.302;8.120;2022-11-15T00:15:11;8.10;99.90
19044;DHT22;9654;52.302;8.120;2022-11-15T00:17:39;8.10;99.90
19044;DHT22;9654;52.302;8.120;2022-11-15T00:20:07;8.20;99.90
19044;DHT22;9654;52.302;8.120;2022-11-15T00:22:34;8.20;99.90
19044;DHT22;9654;52.302;8.120;2022-11-15T00:25:01;8.30;99.90
19044;DHT22;9654;52.302;8.120;2022-11-15T00:27:28;8.30;99.90
19044;DHT22;9654;52.302;8.120;2022-11-15T00:29:55;8.30;99.90
19044;DHT22;9654;52.302;8.120;2022-11-15T00:32:22;8.30;99.90
19044;DHT22;9654;52.302;8.120;2022-11-15T00:34:50;8.30;99.90
19044;DHT22;9654;52.302;8.120;2022-11-15T00:37:17;8.40;99.90
19044;DHT22;9654;52.302;8.120;2022-11-15T00:39:44;8.40;99.90
19044;DHT22;9654;52.302;8.120;2022-11-15T00:42:10;8.50;99.90
19044;DHT22;9654;52.302;8.120;2022-11-15T00:44:37;8.50;99.90
19044;DHT22;9654;52.302;8.120;2022-11-15T00:47:04;8.60;99.90
19044;DHT22;9654;52.302;8.120;2022-11-15T00:49:30;8.60;99.90
19044;DHT22;9654;52.302;8.120;2022-11-15T00:51:59;8.60;99.90
19044;DHT22;9654;52.302;8.120;2022-11-15T00:54:25;8.70;99.90
19044;DHT22;9654;52.302;8.120;2022-11-15T00:56:52;8.70;99.90
19044;DHT22;9654;52.302;8.120;2022-11-15T00:59:19;8.70;99.90
19044;DHT22;9654;52.302;8.120;2022-11-15T01:01:45;8.70;99.90
19044;DHT22;9654;52.302;8.120;2022-11-15T01:04:12;8.70;99.90
19044;DHT22;9654;52.302;8.120;2022-11-15T01:06:40;8.80;99.90
19044;DHT22;9654;52.302;8.120;2022-11-15T01:09:08;8.80;99.90
19044;DHT22;9654;52.302;8.120;2022-11-15T01:11:34;8.80;99.90
19044;DHT22;9654;52.302;8.120;2022-11-15T01:14:01;8.80;99.90
19044;DHT22;9654;52.302;8.120;2022-11-15T01:16:28;8.80;99.90
19044;DHT22;9654;52.302;8.120;2022-11-15T01:18:55;8.80;99.90
19044;DHT22;9654;52.302;8.120;2022-11-15T01:21:21;8.80;99.90
19044;DHT22;9654;52.302;8.120;2022-11-15T01:23:48;8.90;99.90
19044;DHT22;9654;52.302;8.120;2022-11-15T01:26:20;8.90;99.90
19044;DHT22;9654;52.302;8.120;2022-11-15T01:28:46;8.90;99.90
19044;DHT22;9654;52.302;8.120;2022-11-15T01:31:16;8.90;99.90
19044;DHT22;9654;52.302;8.120;2022-11-15T01:33:45;8.90;99.90
19044;DHT22;9654;52.302;8.120;2022-11-15T01:36:14;9.00;99.90
19044;DHT22;9654;52.302;8.120;2022-11-15T01:38:40;9.00;99.90
19044;DHT22;9654;52.302;8.120;2022-11-15T01:41:14;9.00;99.90
19044;DHT22;9654;52.302;8.120;2022-11-15T01:43:43;9.00;99.90
19044;DHT22;9654;52.302;8.120;2022-11-15T01:46:22;9.00;99.90
19044;DHT22;9654;52.302;8.120;2022-11-15T01:48:51;9.00;99.90
19044;DHT22;9654;52.302;8.120;2022-11-15T01:51:20;9.00;99.90
19044;DHT22;9654;52.302;8.120;2022-11-15T01:53:52;9.00;99.90
19044;DHT22;9654;52.302;8.120;2022-11-15T01:56:21;9.00;99.90
19044;DHT22;9654;52.302;8.120;2022-11-15T01:58:51;9.00;99.90
19044;DHT22;9654;52.302;8.120;2022-11-15T02:01:19;9.00;99.90
19044;DHT22;9654;52.302;8.120;2022-11-15T02:03:50;9.10;99.90
19044;DHT22;9654;52.302;8.120;2022-11-15T02:06:18;9.10;99.90
19044;DHT22;9654;52.302;8.120;2022-11-15T02:08:45;9.20;99.90
19044;DHT22;9654;52.302;8.120;2022-11-15T02:11:12;9.20;99.90
19044;DHT22;9654;52.302;8.120;2022-11-15T02:13:40;9.20;99.90
19044;DHT22;9654;52.302;8.120;2022-11-15T02:16:13;9.20;99.90
19044;DHT22;9654;52.302;8.120;2022-11-15T02:18:48;9.30;99.90
19044;DHT22;9654;52.302;8.120;2022-11-15T02:21:22;9.30;99.90
19044;DHT22;9654;52.302;8.120;2022-11-15T02:24:21;9.30;99.90
19044;DHT22;9654;52.302;8.120;2022-11-15T02:27:23;9.40;99.90
19044;DHT22;9654;52.302;8.120;2022-11-15T02:30:19;9.40;99.90
19044;DHT22;9654;52.302;8.120;2022-11-15T02:32:50;9.50;99.90
19044;DHT22;9654;52.302;8.120;2022-11-15T02:35:24;9.50;99.90
19044;DHT22;9654;52.302;8.120;2022-11-15T02:37:57;9.50;99.90
19044;DHT22;9654;52.302;8.120;2022-11-15T02:40:33;9.60;99.90
19044;DHT22;9654;52.302;8.120;2022-11-15T02:43:08;9.60;99.90
19044;DHT22;9654;52.302;8.120;2022-11-15T02:45:58;9.60;99.90
19044;DHT22;9654;52.302;8.120;2022-11-15T02:48:27;9.60;99.90
19044;DHT22;9654;52.302;8.120;2022-11-15T02:50:55;9.60;99.90
19044;DHT22;9654;52.302;8.120;2022-11-15T02:53:24;9.60;99.90
19044;DHT22;9654;52.302;8.120;2022-11-15T02:55:51;9.60;99.90
19044;DHT22;9654;52.302;8.120;2022-11-15T02:58:42;9.70;99.90
19044;DHT22;9654;52.302;8.120;2022-11-15T03:01:19;9.60;99.90
19044;DHT22;9654;52.302;8.120;2022-11-15T03:03:59;9.70;99.90
19044;DHT22;9654;52.302;8.120;2022-11-15T03:06:33;9.80;99.90
19044;DHT22;9654;52.302;8.120;2022-11-15T03:09:05;9.80;99.90
19044;DHT22;9654;52.302;8.120;2022-11-15T03:11:37;9.90;99.90
19044;DHT22;9654;52.302;8.120;2022-11-15T03:14:16;10.00;99.90
19044;DHT22;9654;52.302;8.120;2022-11-15T03:16:50;10.10;99.90
19044;DHT22;9654;52.302;8.120;2022-11-15T03:19:21;10.20;99.90
19044;DHT22;9654;52.302;8.120;2022-11-15T03:21:50;10.20;99.90
19044;DHT22;9654;52.302;8.120;2022-11-15T03:24:19;10.30;99.90
19044;DHT22;9654;52.302;8.120;2022-11-15T03:26:48;10.50;99.90
19044;DHT22;9654;52.302;8.120;2022-11-15T03:29:19;10.50;99.90
19044;DHT22;9654;52.302;8.120;2022-11-15T03:31:52;10.70;99.90
19044;DHT22;9654;52.302;8.120;2022-11-15T03:34:25;10.70;99.90
19044;DHT22;9654;52.302;8.120;2022-11-15T03:36:53;10.90;99.90
19044;DHT22;9654;52.302;8.120;2022-11-15T03:39:21;10.90;99.90
19044;DHT22;9654;52.302;8.120;2022-11-15T03:41:51;10.90;99.90
19044;DHT22;9654;52.302;8.120;2022-11-15T03:44:30;11.00;99.90
19044;DHT22;9654;52.302;8.120;2022-11-15T03:47:03;11.00;99.90
19044;DHT22;9654;52.302;8.120;2022-11-15T03:49:34;10.90;99.90
19044;DHT22;9654;52.302;8.120;2022-11-15T03:52:02;11.00;99.90
19044;DHT22;9654;52.302;8.120;2022-11-15T03:54:30;11.00;99.90
19044;DHT22;9654;52.302;8.120;2022-11-15T03:56:56;11.00;99.90
19044;DHT22;9654;52.302;8.120;2022-11-15T03:59:23;11.00;99.90
19044;DHT22;9654;52.302;8.120;2022-11-15T04:01:50;11.00;99.90
19044;DHT22;9654;52.302;8.120;2022-11-15T04:04:18;11.00;99.90
19044;DHT22;9654;52.302;8.120;2022-11-15T04:06:45;11.00;99.90
19044;DHT22;9654;52.302;8.120;2022-11-15T04:09:12;11.00;99.90
19044;DHT22;9654;52.302;8.120;2022-11-15T04:11:39;11.10;99.90
19044;DHT22;9654;52.302;8.120;2022-11-15T04:14:05;11.10;99.90
19044;DHT22;9654;52.302;8.120;2022-11-15T04:16:32;11.10;99.90
19044;DHT22;9654;52.302;8.120;2022-11-15T04:18:59;11.10;99.90
19044;DHT22;9654;52.302;8.120;2022-11-15T04:21:44;11.10;99.90
19044;DHT22;9654;52.302;8.120;2022-11-15T04:24:28;11.10;99.90
19044;DHT22;9654;52.302;8.120;2022-11-15T04:26:55;11.10;99.90
19044;DHT22;9654;52.302;8.120;2022-11-15T04:29:22;11.10;99.90
19044;DHT22;9654;52.302;8.120;2022-11-15T04:32:01;11.10;99.90
19044;DHT22;9654;52.302;8.120;2022-11-15T04:34:27;11.10;99.90
19044;DHT22;9654;52.302;8.120;2022-11-15T04:36:55;11.10;99.90
19044;DHT22;9654;52.302;8.120;2022-11-15T04:39:42;11.20;99.90
19044;DHT22;9654;52.302;8.120;2022-11-15T04:42:09;11.20;99.90
19044;DHT22;9654;52.302;8.120;2022-11-15T04:44:36;11.20;99.90
19044;DHT22;9654;52.302;8.120;2022-11-15T04:47:03;11.20;99.90
19044;DHT22;9654;52.302;8.120;2022-11-15T04:49:30;11.20;99.90
19044;DHT22;9654;52.302;8.120;2022-11-15T04:51:58;11.20;99.90
19044;DHT22;9654;52.302;8.120;2022-11-15T04:54:25;11.20;99.90
19044;DHT22;9654;52.302;8.120;2022-11-15T04:56:52;11.20;99.90
19044;DHT22;9654;52.302;8.120;2022-11-15T04:59:18;11.20;99.90
19044;DHT22;9654;52.302;8.120;2022-11-15T05:01:45;11.30;99.90
19044;DHT22;9654;52.302;8.120;2022-11-15T05:04:12;11.30;99.90
19044;DHT22;9654;52.302;8.120;2022-11-15T05:06:48;11.30;99.90
19044;DHT22;9654;52.302;8.120;2022-11-15T05:09:16;11.30;99.90
19044;DHT22;9654;52.302;8.120;2022-11-15T05:11:43;11.30;99.90
19044;DHT22;9654;52.302;8.120;2022-11-15T05:14:10;11.40;99.90
19044;DHT22;9654;52.302;8.120;2022-11-15T05:16:38;11.40;99.90
19044;DHT22;9654;52.302;8.120;2022-11-15T05:19:05;11.40;99.90
19044;DHT22;9654;52.302;8.120;2022-11-15T05:21:33;11.40;99.90
19044;DHT22;9654;52.302;8.120;2022-11-15T05:24:00;11.40;99.90
19044;DHT22;9654;52.302;8.120;2022-11-15T05:26:28;11.40;99.90
19044;DHT22;9654;52.302;8.120;2022-11-15T05:28:56;11.40;99.90
19044;DHT22;9654;52.302;8.120;2022-11-15T05:31:24;11.30;99.90
19044;DHT22;9654;52.302;8.120;2022-11-15T05:33:51;11.30;99.90
19044;DHT22;9654;52.302;8.120;2022-11-15T05:36:24;11.30;99.90
19044;DHT22;9654;52.302;8.120;2022-11-15T05:38:53;11.30;99.90
19044;DHT22;9654;52.302;8.120;2022-11-15T05:41:24;11.30;99.90
19044;DHT22;9654;52.302;8.120;2022-11-15T05:43:53;11.30;99.90
19044;DHT22;9654;52.302;8.120;2022-11-15T05:46:20;11.40;99.90
19044;DHT22;9654;52.302;8.120;2022-11-15T05:48:48;11.40;99.90
19044;DHT22;9654;52.302;8.120;2022-11-15T05:51:17;11.40;99.90
19044;DHT22;9654;52.302;8.120;2022-11-15T05:53:46;11.30;99.90
19044;DHT22;9654;52.302;8.120;2022-11-15T05:56:14;11.30;99.90
19044;DHT22;9654;52.302;8.120;2022-11-15T05:58:41;11.30;99.90
19044;DHT22;9654;52.302;8.120;2022-11-15T06:01:10;11.30;99.90
19044;DHT22;9654;52.302;8.120;2022-11-15T06:03:37;11.40;99.90
19044;DHT22;9654;52.302;8.120;2022-11-15T06:06:04;11.40;99.90
19044;DHT22;9654;52.302;8.120;2022-11-15T06:08:30;11.50;99.90
19044;DHT22;9654;52.302;8.120;2022-11-15T06:11:03;11.50;99.90
19044;DHT22;9654;52.302;8.120;2022-11-15T06:13:30;11.50;99.90
19044;DHT22;9654;52.302;8.120;2022-11-15T06:15:57;11.50;99.90
19044;DHT22;9654;52.302;8.120;2022-11-15T06:18:25;11.50;99.90
19044;DHT22;9654;52.302;8.120;2022-11-15T06:20:52;11.50;99.90
19044;DHT22;9654;52.302;8.120;2022-11-15T06:23:19;11.50;99.90
19044;DHT22;9654;52.302;8.120;2022-11-15T06:25:46;11.50;99.90
19044;DHT22;9654;52.302;8.120;2022-11-15T06:28:13;11.50;99.90
19044;DHT22;9654;52.302;8.120;2022-11-15T06:30:40;11.50;99.90
19044;DHT22;9654;52.302;8.120;2022-11-15T06:33:06;11.50;99.90
19044;DHT22;9654;52.302;8.120;2022-11-15T06:35:36;11.60;99.90
19044;DHT22;9654;52.302;8.120;2022-11-15T06:38:03;11.60;99.90
19044;DHT22;9654;52.302;8.120;2022-11-15T06:40:33;11.60;99.90
19044;DHT22;9654;52.302;8.120;2022-11-15T06:43:00;11.60;99.90
19044;DHT22;9654;52.302;8.120;2022-11-15T06:45:27;11.60;99.90
19044;DHT22;9654;52.302;8.120;2022-11-15T06:47:53;11.70;99.90
19044;DHT22;9654;52.302;8.120;2022-11-15T06:50:20;11.70;99.90
19044;DHT22;9654;52.302;8.120;2022-11-15T06:52:48;11.70;99.90
19044;DHT22;9654;52.302;8.120;2022-11-15T06:55:15;11.60;99.90
19044;DHT22;9654;52.302;8.120;2022-11-15T06:57:46;11.60;99.90
19044;DHT22;9654;52.302;8.120;2022-11-15T07:00:15;11.60;99.90
19044;DHT22;9654;52.302;8.120;2022-11-15T07:02:42;11.50;99.90
19044;DHT22;9654;52.302;8.120;2022-11-15T07:05:09;11.50;99.90
19044;DHT22;9654;52.302;8.120;2022-11-15T07:07:35;11.50;99.90
19044;DHT22;9654;52.302;8.120;2022-11-15T07:10:04;11.50;99.90
19044;DHT22;9654;52.302;8.120;2022-11-15T07:12:31;11.40;99.90
19044;DHT22;9654;52.302;8.120;2022-11-15T07:14:58;11.40;99.90
19044;DHT22;9654;52.302;8.120;2022-11-15T07:17:25;11.50;99.90
19044;DHT22;9654;52.302;8.120;2022-11-15T07:19:52;11.40;99.90
19044;DHT22;9654;52.302;8.120;2022-11-15T07:22:18;11.40;99.90
19044;DHT22;9654;52.302;8.120;2022-11-15T07:24:45;11.50;99.90
19044;DHT22;9654;52.302;8.120;2022-11-15T07:27:13;11.50;99.90
19044;DHT22;9654;52.302;8.120;2022-11-15T07:29:40;11.50;99.90
19044;DHT22;9654;52.302;8.120;2022-11-15T07:32:07;11.50;99.90
19044;DHT22;9654;52.302;8.120;2022-11-15T07:34:34;11.50;99.90
19044;DHT22;9654;52.302;8.120;2022-11-15T07:37:00;11.50;99.90
19044;DHT22;9654;52.302;8.120;2022-11-15T07:39:27;11.50;99.90
19044;DHT22;9654;52.302;8.120;2022-11-15T07:41:54;11.50;99.90
19044;DHT22;9654;52.302;8.120;2022-11-15T07:44:42;11.50;99.90
19044;DHT22;9654;52.302;8.120;2022-11-15T07:47:09;11.50;99.90
19044;DHT22;9654;52.302;8.120;2022-11-15T07:49:35;11.50;99.90
19044;DHT22;9654;52.302;8.120;2022-11-15T07:52:02;11.50;99.90
19044;DHT22;9654;52.302;8.120;2022-11-15T07:54:29;11.50;99.90
19044;DHT22;9654;52.302;8.120;2022-11-15T07:56:56;11.50;99.90
19044;DHT22;9654;52.302;8.120;2022-11-15T07:59:23;11.50;99.90
19044;DHT22;9654;52.302;8.120;2022-11-15T08:01:51;11.50;99.90
19044;DHT22;9654;52.302;8.120;2022-11-15T08:04:18;11.50;99.90
19044;DHT22;9654;52.302;8.120;2022-11-15T08:06:44;11.60;99.90
19044;DHT22;9654;52.302;8.120;2022-11-15T08:09:11;11.60;99.90
19044;DHT22;9654;52.302;8.120;2022-11-15T08:11:38;11.50;99.90
19044;DHT22;9654;52.302;8.120;2022-11-15T08:14:05;11.60;99.90
19044;DHT22;9654;52.302;8.120;2022-11-15T08:16:32;11.60;99.90
19044;DHT22;9654;52.302;8.120;2022-11-15T08:19:00;11.60;99.90
19044;DHT22;9654;52.302;8.120;2022-11-15T08:21:26;11.70;99.90
19044;DHT22;9654;52.302;8.120;2022-11-15T08:23:53;11.70;99.90
19044;DHT22;9654;52.302;8.120;2022-11-15T08:26:20;11.70;99.90
19044;DHT22;9654;52.302;8.120;2022-11-15T08:28:47;11.80;99.90
19044;DHT22;9654;52.302;8.120;2022-11-15T08:31:15;11.90;99.90
19044;DHT22;9654;52.302;8.120;2022-11-15T08:33:43;11.90;99.90
19044;DHT22;9654;52.302;8.120;2022-11-15T08:36:14;12.00;99.90
19044;DHT22;9654;52.302;8.120;2022-11-15T08:38:41;12.00;99.90
19044;DHT22;9654;52.302;8.120;2022-11-15T08:41:12;12.10;99.90
19044;DHT22;9654;52.302;8.120;2022-11-15T08:43:40;12.10;99.90
19044;DHT22;9654;52.302;8.120;2022-11-15T08:46:09;12.20;99.90
19044;DHT22;9654;52.302;8.120;2022-11-15T08:48:37;12.20;99.90
19044;DHT22;9654;52.302;8.120;2022-11-15T08:51:04;12.30;99.90
19044;DHT22;9654;52.302;8.120;2022-11-15T08:55:59;12.40;99.90
19044;DHT22;9654;52.302;8.120;2022-11-15T08:58:27;12.40;99.90
19044;DHT22;9654;52.302;8.120;2022-11-15T09:00:54;12.40;99.90
19044;DHT22;9654;52.302;8.120;2022-11-15T09:03:21;12.50;99.90
19044;DHT22;9654;52.302;8.120;2022-11-15T09:05:47;12.50;99.90
19044;DHT22;9654;52.302;8.120;2022-11-15T09:08:14;12.60;99.90
19044;DHT22;9654;52.302;8.120;2022-11-15T09:10:42;12.60;99.90
19044;DHT22;9654;52.302;8.120;2022-11-15T09:13:09;12.70;99.90
19044;DHT22;9654;52.302;8.120;2022-11-15T09:15:36;12.70;99.90
19044;DHT22;9654;52.302;8.120;2022-11-15T09:18:02;12.80;99.90
19044;DHT22;9654;52.302;8.120;2022-11-15T09:20:29;12.80;99.90
19044;DHT22;9654;52.302;8.120;2022-11-15T09:22:59;12.80;99.90
19044;DHT22;9654;52.302;8.120;2022-11-15T09:25:26;12.90;99.90
19044;DHT22;9654;52.302;8.120;2022-11-15T09:27:55;12.90;99.90
19044;DHT22;9654;52.302;8.120;2022-11-15T09:30:22;12.90;99.90
19044;DHT22;9654;52.302;8.120;2022-11-15T09:32:49;12.90;99.90
19044;DHT22;9654;52.302;8.120;2022-11-15T09:35:16;12.90;99.90
19044;DHT22;9654;52.302;8.120;2022-11-15T09:37:43;13.00;99.90
19044;DHT22;9654;52.302;8.120;2022-11-15T09:40:11;13.00;99.90
19044;DHT22;9654;52.302;8.120;2022-11-15T09:42:54;13.00;99.90
19044;DHT22;9654;52.302;8.120;2022-11-15T09:45:28;13.10;99.90
19044;DHT22;9654;52.302;8.120;2022-11-15T09:48:08;13.10;99.90
19044;DHT22;9654;52.302;8.120;2022-11-15T09:50:41;13.20;99.90
19044;DHT22;9654;52.302;8.120;2022-11-15T09:53:14;13.30;99.90
19044;DHT22;9654;52.302;8.120;2022-11-15T09:55:46;13.40;99.90
19044;DHT22;9654;52.302;8.120;2022-11-15T09:58:24;13.50;99.90
19044;DHT22;9654;52.302;8.120;2022-11-15T10:00:52;13.60;99.90
19044;DHT22;9654;52.302;8.120;2022-11-15T10:03:25;13.60;99.90
19044;DHT22;9654;52.302;8.120;2022-11-15T10:05:55;13.70;99.90
19044;DHT22;9654;52.302;8.120;2022-11-15T10:08:31;13.70;99.90
19044;DHT22;9654;52.302;8.120;2022-11-15T10:11:02;13.70;99.90
19044;DHT22;9654;52.302;8.120;2022-11-15T10:13:33;13.70;99.90
19044;DHT22;9654;52.302;8.120;2022-11-15T10:16:13;13.60;99.90
19044;DHT22;9654;52.302;8.120;2022-11-15T10:18:54;13.70;99.90
19044;DHT22;9654;52.302;8.120;2022-11-15T10:21:25;13.70;99.90
19044;DHT22;9654;52.302;8.120;2022-11-15T10:23:54;13.70;99.90
19044;DHT22;9654;52.302;8.120;2022-11-15T10:26:21;13.80;99.90
19044;DHT22;9654;52.302;8.120;2022-11-15T10:28:51;13.80;99.90
19044;DHT22;9654;52.302;8.120;2022-11-15T10:31:22;13.80;99.90
19044;DHT22;9654;52.302;8.120;2022-11-15T10:33:51;13.80;99.90
19044;DHT22;9654;52.302;8.120;2022-11-15T10:36:23;13.90;99.90
19044;DHT22;9654;52.302;8.120;2022-11-15T10:38:57;13.90;99.90
19044;DHT22;9654;52.302;8.120;2022-11-15T10:41:31;13.90;99.90
19044;DHT22;9654;52.302;8.120;2022-11-15T10:44:20;14.00;99.90
19044;DHT22;9654;52.302;8.120;2022-11-15T10:46:48;14.00;99.90
19044;DHT22;9654;52.302;8.120;2022-11-15T10:49:31;13.90;99.90
19044;DHT22;9654;52.302;8.120;2022-11-15T10:52:00;13.90;99.90
19044;DHT22;9654;52.302;8.120;2022-11-15T10:54:30;13.90;99.90
19044;DHT22;9654;52.302;8.120;2022-11-15T10:57:03;13.90;99.90
19044;DHT22;9654;52.302;8.120;2022-11-15T10:59:36;14.00;99.90
19044;DHT22;9654;52.302;8.120;2022-11-15T11:02:28;14.00;99.90
19044;DHT22;9654;52.302;8.120;2022-11-15T11:04:55;14.00;99.90
19044;DHT22;9654;52.302;8.120;2022-11-15T11:07:24;14.10;99.90
19044;DHT22;9654;52.302;8.120;2022-11-15T11:09:58;14.20;99.90
19044;DHT22;9654;52.302;8.120;2022-11-15T11:12:28;14.20;99.90
19044;DHT22;9654;52.302;8.120;2022-11-15T11:14:58;14.20;99.90
19044;DHT22;9654;52.302;8.120;2022-11-15T11:17:33;14.20;99.90
19044;DHT22;9654;52.302;8.120;2022-11-15T11:20:06;14.20;99.90
19044;DHT22;9654;52.302;8.120;2022-11-15T11:22:40;14.30;99.90
19044;DHT22;9654;52.302;8.120;2022-11-15T11:25:23;14.30;99.90
19044;DHT22;9654;52.302;8.120;2022-11-15T11:28:09;14.40;99.90
19044;DHT22;9654;52.302;8.120;2022-11-15T11:30:47;14.40;99.90
19044;DHT22;9654;52.302;8.120;2022-11-15T11:33:18;14.40;99.90
19044;DHT22;9654;52.302;8.120;2022-11-15T11:35:59;14.50;99.90
19044;DHT22;9654;52.302;8.120;2022-11-15T11:38:39;14.50;99.90
19044;DHT22;9654;52.302;8.120;2022-11-15T11:41:15;14.60;99.90
19044;DHT22;9654;52.302;8.120;2022-11-15T11:43:53;14.70;99.90
19044;DHT22;9654;52.302;8.120;2022-11-15T11:46:35;14.80;99.90
19044;DHT22;9654;52.302;8.120;2022-11-15T11:49:12;14.80;99.90
19044;DHT22;9654;52.302;8.120;2022-11-15T11:51:45;14.80;99.90
19044;DHT22;9654;52.302;8.120;2022-11-15T11:54:19;14.90;99.90
19044;DHT22;9654;52.302;8.120;2022-11-15T11:56:47;15.00;99.90
19044;DHT22;9654;52.302;8.120;2022-11-15T11:59:19;15.10;99.90
19044;DHT22;9654;52.302;8.120;2022-11-15T12:01:50;15.10;99.90
19044;DHT22;9654;52.302;8.120;2022-11-15T12:04:21;15.10;99.90
19044;DHT22;9654;52.302;8.120;2022-11-15T12:06:56;15.10;99.90
19044;DHT22;9654;52.302;8.120;2022-11-15T12:09:29;15.20;99.90
19044;DHT22;9654;52.302;8.120;2022-11-15T12:12:02;15.10;99.90
19044;DHT22;9654;52.302;8.120;2022-11-15T12:14:36;15.00;99.90
19044;DHT22;9654;52.302;8.120;2022-11-15T12:17:08;15.00;99.90
19044;DHT22;9654;52.302;8.120;2022-11-15T12:19:35;15.00;99.90
19044;DHT22;9654;52.302;8.120;2022-11-15T12:22:04;15.10;99.90
19044;DHT22;9654;52.302;8.120;2022-11-15T12:24:37;15.10;99.90
19044;DHT22;9654;52.302;8.120;2022-11-15T12:27:12;15.10;99.90
19044;DHT22;9654;52.302;8.120;2022-11-15T12:29:45;15.00;99.90
19044;DHT22;9654;52.302;8.120;2022-11-15T12:32:23;15.00;99.90
19044;DHT22;9654;52.302;8.120;2022-11-15T12:34:51;15.10;99.90
19044;DHT22;9654;52.302;8.120;2022-11-15T12:37:50;15.00;99.90
19044;DHT22;9654;52.302;8.120;2022-11-15T12:40:20;15.10;99.90
19044;DHT22;9654;52.302;8.120;2022-11-15T12:43:02;15.00;99.90
19044;DHT22;9654;52.302;8.120;2022-11-15T12:45:31;15.00;99.90
19044;DHT22;9654;52.302;8.120;2022-11-15T12:51:00;15.00;99.90
19044;DHT22;9654;52.302;8.120;2022-11-15T12:53:27;15.10;99.90
19044;DHT22;9654;52.302;8.120;2022-11-15T12:56:22;15.10;99.90
19044;DHT22;9654;52.302;8.120;2022-11-15T12:58:52;15.30;99.90
19044;DHT22;9654;52.302;8.120;2022-11-15T13:01:52;15.30;99.90
19044;DHT22;9654;52.302;8.120;2022-11-15T13:04:27;15.40;99.90
19044;DHT22;9654;52.302;8.120;2022-11-15T13:06:57;15.40;99.90
19044;DHT22;9654;52.302;8.120;2022-11-15T13:09:50;15.40;99.90
19044;DHT22;9654;52.302;8.120;2022-11-15T13:12:53;15.40;99.90
19044;DHT22;9654;52.302;8.120;2022-11-15T13:15:56;15.30;99.90
19044;DHT22;9654;52.302;8.120;2022-11-15T13:18:34;15.30;99.90
19044;DHT22;9654;52.302;8.120;2022-11-15T13:21:03;15.30;99.90
19044;DHT22;9654;52.302;8.120;2022-11-15T13:23:55;15.20;99.90
19044;DHT22;9654;52.302;8.120;2022-11-15T13:26:22;15.10;99.90
19044;DHT22;9654;52.302;8.120;2022-11-15T13:28:51;15.00;99.90
19044;DHT22;9654;52.302;8.120;2022-11-15T13:31:26;15.00;99.90
19044;DHT22;9654;52.302;8.120;2022-11-15T13:33:56;14.90;99.90
19044;DHT22;9654;52.302;8.120;2022-11-15T13:36:25;14.80;99.90
19044;DHT22;9654;52.302;8.120;2022-11-15T13:38:58;14.70;99.90
19044;DHT22;9654;52.302;8.120;2022-11-15T13:41:26;14.70;99.90
19044;DHT22;9654;52.302;8.120;2022-11-15T13:43:55;14.70;99.90
19044;DHT22;9654;52.302;8.120;2022-11-15T13:46:23;14.70;99.90
19044;DHT22;9654;52.302;8.120;2022-11-15T13:48:54;14.70;99.90
19044;DHT22;9654;52.302;8.120;2022-11-15T13:51:25;14.80;99.90
19044;DHT22;9654;52.302;8.120;2022-11-15T13:53:57;14.80;99.90
19044;DHT22;9654;52.302;8.120;2022-11-15T13:56:27;14.80;99.90
19044;DHT22;9654;52.302;8.120;2022-11-15T13:58:54;14.80;99.90
19044;DHT22;9654;52.302;8.120;2022-11-15T14:01:21;14.80;99.90
19044;DHT22;9654;52.302;8.120;2022-11-15T14:03:55;14.80;99.90
19044;DHT22;9654;52.302;8.120;2022-11-15T14:06:24;14.70;99.90
19044;DHT22;9654;52.302;8.120;2022-11-15T14:09:24;14.80;99.90
19044;DHT22;9654;52.302;8.120;2022-11-15T14:11:53;14.80;99.90
19044;DHT22;9654;52.302;8.120;2022-11-15T14:14:22;14.80;99.90
19044;DHT22;9654;52.302;8.120;2022-11-15T14:16:51;14.70;99.90
19044;DHT22;9654;52.302;8.120;2022-11-15T14:19:38;14.60;99.90
19044;DHT22;9654;52.302;8.120;2022-11-15T14:22:15;14.50;99.90
19044;DHT22;9654;52.302;8.120;2022-11-15T14:24:45;14.50;99.90
19044;DHT22;9654;52.302;8.120;2022-11-15T14:27:20;14.40;99.90
19044;DHT22;9654;52.302;8.120;2022-11-15T14:29:47;14.30;99.90
19044;DHT22;9654;52.302;8.120;2022-11-15T14:32:16;14.20;99.90
19044;DHT22;9654;52.302;8.120;2022-11-15T14:34:43;14.20;99.90
19044;DHT22;9654;52.302;8.120;2022-11-15T14:37:20;14.10;99.90
19044;DHT22;9654;52.302;8.120;2022-11-15T14:39:49;14.00;99.90
19044;DHT22;9654;52.302;8.120;2022-11-15T14:42:16;13.90;99.90
19044;DHT22;9654;52.302;8.120;2022-11-15T14:44:43;13.90;99.90
19044;DHT22;9654;52.302;8.120;2022-11-15T14:47:10;13.90;99.90
19044;DHT22;9654;52.302;8.120;2022-11-15T14:49:37;13.80;99.90
19044;DHT22;9654;52.302;8.120;2022-11-15T14:52:11;13.70;99.90
19044;DHT22;9654;52.302;8.120;2022-11-15T14:54:43;13.60;99.90
19044;DHT22;9654;52.302;8.120;2022-11-15T14:57:11;13.50;99.90
19044;DHT22;9654;52.302;8.120;2022-11-15T14:59:38;13.40;99.90
19044;DHT22;9654;52.302;8.120;2022-11-15T15:02:10;13.30;99.90
19044;DHT22;9654;52.302;8.120;2022-11-15T15:04:40;13.30;99.90
19044;DHT22;9654;52.302;8.120;2022-11-15T15:07:07;13.20;99.90
19044;DHT22;9654;52.302;8.120;2022-11-15T15:09:34;13.10;99.90
19044;DHT22;9654;52.302;8.120;2022-11-15T15:12:01;13.10;99.90
19044;DHT22;9654;52.302;8.120;2022-11-15T15:14:29;13.00;99.90
19044;DHT22;9654;52.302;8.120;2022-11-15T15:16:56;13.00;99.90
19044;DHT22;9654;52.302;8.120;2022-11-15T15:19:22;12.90;99.90
19044;DHT22;9654;52.302;8.120;2022-11-15T15:21:49;12.90;99.90
19044;DHT22;9654;52.302;8.120;2022-11-15T15:24:16;12.80;99.90
19044;DHT22;9654;52.302;8.120;2022-11-15T15:26:43;12.70;99.90
19044;DHT22;9654;52.302;8.120;2022-11-15T15:29:10;12.60;99.90
19044;DHT22;9654;52.302;8.120;2022-11-15T15:31:38;12.60;99.90
19044;DHT22;9654;52.302;8.120;2022-11-15T15:34:04;12.50;99.90
19044;DHT22;9654;52.302;8.120;2022-11-15T15:36:31;12.50;99.90
19044;DHT22;9654;52.302;8.120;2022-11-15T15:38:58;12.40;99.90
19044;DHT22;9654;52.302;8.120;2022-11-15T15:41:25;12.30;99.90
19044;DHT22;9654;52.302;8.120;2022-11-15T15:43:52;12.20;99.90
19044;DHT22;9654;52.302;8.120;2022-11-15T15:46:19;12.10;99.90
19044;DHT22;9654;52.302;8.120;2022-11-15T15:48:47;12.00;99.90
19044;DHT22;9654;52.302;8.120;2022-11-15T15:51:14;11.90;99.90
19044;DHT22;9654;52.302;8.120;2022-11-15T15:53:41;11.90;99.90
19044;DHT22;9654;52.302;8.120;2022-11-15T15:56:08;11.80;99.90
19044;DHT22;9654;52.302;8.120;2022-11-15T15:58:35;11.70;99.90
19044;DHT22;9654;52.302;8.120;2022-11-15T16:01:02;11.70;99.90
19044;DHT22;9654;52.302;8.120;2022-11-15T16:03:29;11.60;99.90
19044;DHT22;9654;52.302;8.120;2022-11-15T16:05:58;11.60;99.90
19044;DHT22;9654;52.302;8.120;2022-11-15T16:08:25;11.50;99.90
19044;DHT22;9654;52.302;8.120;2022-11-15T16:10:54;11.50;99.90
19044;DHT22;9654;52.302;8.120;2022-11-15T16:13:21;11.40;99.90
19044;DHT22;9654;52.302;8.120;2022-11-15T16:15:51;11.40;99.90